Time;durP1;ratioP1;P1;durP2;ratioP2;P2;SDS_P1;SDS_P2;PMS_P1;PMS_P2;Temp;Humidity;BMP_temperature;BMP_pressure;BME280_temperature;BME280_humidity;BME280_pressure;Samples;Min_cycle;Max_cycle;Signal;HPM_P1;HPM_P2
2020/12/08 00:00:29;;;;;;;54.53;25.37;;;;;;;2.73;77.82;99730.57;1755055;81;21167;-73
2020/12/08 00:02:57;;;;;;;50.23;23.42;;;;;;;2.69;77.85;99722.59;1754311;81;21175;-74
2020/12/08 00:05:23;;;;;;;50.03;23.87;;;;;;;2.66;77.85;99722.88;1754685;81;21259;-74
2020/12/08 00:07:50;;;;;;;48.48;22.82;;;;;;;2.63;77.88;99721.83;1754876;81;21191;-74
2020/12/08 00:10:19;;;;;;;48.87;24.20;;;;;;;2.61;77.89;99723.75;1754898;81;21136;-74
2020/12/08 00:12:49;;;;;;;46.88;24.52;;;;;;;2.58;77.94;99725.34;1755055;81;21168;-73
2020/12/08 00:15:16;;;;;;;49.77;23.77;;;;;;;2.56;77.95;99732.08;1754607;81;21112;-74
2020/12/08 00:17:46;;;;;;;45.85;24.98;;;;;;;2.53;78.00;99733.16;1755022;81;22088;-73
2020/12/08 00:20:12;;;;;;;56.10;23.98;;;;;;;2.50;78.01;99732.11;1754977;81;26824;-73
2020/12/08 00:22:38;;;;;;;49.58;24.60;;;;;;;2.46;78.03;99729.40;1754948;81;21148;-73
2020/12/08 00:25:06;;;;;;;47.50;23.07;;;;;;;2.43;78.07;99742.83;1755013;81;21586;-73
2020/12/08 00:27:33;;;;;;;51.18;23.42;;;;;;;2.41;78.09;99744.77;1754924;81;21136;-74
2020/12/08 00:30:00;;;;;;;50.60;22.37;;;;;;;2.36;78.12;99740.38;1755075;81;21259;-73
2020/12/08 00:32:26;;;;;;;54.98;25.75;;;;;;;2.34;78.16;99743.64;1755009;81;21177;-73
2020/12/08 00:34:52;;;;;;;48.35;25.70;;;;;;;2.31;78.19;99749.17;1755013;81;21179;-73
2020/12/08 00:37:19;;;;;;;49.65;24.75;;;;;;;2.27;78.22;99747.77;1754899;81;21120;-73
2020/12/08 00:39:45;;;;;;;55.73;26.37;;;;;;;2.24;78.24;99750.67;1755091;81;21124;-73
2020/12/08 00:42:11;;;;;;;45.38;23.95;;;;;;;2.20;78.25;99751.91;1754967;81;21193;-73
2020/12/08 00:44:37;;;;;;;51.35;25.32;;;;;;;2.17;78.30;99762.69;1754834;81;21606;-73
2020/12/08 00:47:04;;;;;;;46.53;22.50;;;;;;;2.13;78.29;99761.28;1755065;81;21140;-73
2020/12/08 00:49:30;;;;;;;48.33;22.87;;;;;;;2.10;78.31;99772.07;1754665;81;21132;-73
2020/12/08 00:51:58;;;;;;;42.08;21.82;;;;;;;2.09;78.34;99774.82;1754939;81;21159;-73
2020/12/08 00:54:24;;;;;;;50.67;23.30;;;;;;;2.06;78.36;99778.55;1754909;81;21620;-73
2020/12/08 00:56:50;;;;;;;49.55;25.60;;;;;;;2.03;78.37;99778.82;1754771;81;21136;-73
2020/12/08 00:59:17;;;;;;;45.73;24.87;;;;;;;2.00;78.39;99772.52;1754842;81;21143;-73
2020/12/08 01:01:44;;;;;;;47.05;24.95;;;;;;;1.95;78.44;99766.80;1754792;81;21131;-73
2020/12/08 01:04:10;;;;;;;47.98;24.82;;;;;;;1.90;78.46;99761.12;1754910;81;21152;-73
2020/12/08 01:06:40;;;;;;;52.90;24.35;;;;;;;1.85;78.47;99769.86;1754855;81;21195;-73
2020/12/08 01:09:07;;;;;;;47.38;22.82;;;;;;;1.80;78.49;99764.15;1754994;81;21187;-74
2020/12/08 01:11:41;;;;;;;51.05;26.00;;;;;;;1.75;78.54;99762.41;1754929;81;21163;-73
2020/12/08 01:14:10;;;;;;;45.25;23.00;;;;;;;1.73;78.57;99765.16;1755054;81;21174;-73
2020/12/08 01:16:36;;;;;;;46.63;24.32;;;;;;;1.71;78.60;99763.63;1754836;81;21529;-74
2020/12/08 01:19:03;;;;;;;55.43;25.60;;;;;;;1.68;78.62;99763.89;1754880;81;21582;-73
2020/12/08 01:21:29;;;;;;;52.17;25.72;;;;;;;1.65;78.66;99760.21;1754785;81;21144;-74
2020/12/08 01:23:56;;;;;;;58.08;26.73;;;;;;;1.61;78.69;99763.58;1755037;81;21156;-73
2020/12/08 01:26:23;;;;;;;55.78;27.05;;;;;;;1.56;78.70;99765.74;1754962;81;21068;-74
2020/12/08 01:28:49;;;;;;;49.95;24.65;;;;;;;1.50;78.75;99756.59;1755003;81;21116;-74
2020/12/08 01:31:15;;;;;;;49.77;23.83;;;;;;;1.45;78.78;99745.62;1754982;81;22002;-74
2020/12/08 01:33:42;;;;;;;47.15;23.38;;;;;;;1.42;78.81;99752.45;1754810;81;21159;-73
2020/12/08 01:36:08;;;;;;;47.45;23.07;;;;;;;1.38;78.84;99749.72;1754791;81;21140;-73
2020/12/08 01:38:34;;;;;;;44.67;23.42;;;;;;;1.36;78.87;99755.59;1754965;81;21151;-74
2020/12/08 01:41:01;;;;;;;54.10;25.43;;;;;;;1.32;78.92;99748.92;1754763;81;21148;-73
2020/12/08 01:43:27;;;;;;;51.83;25.92;;;;;;;1.29;78.97;99751.81;1754953;81;22194;-74
2020/12/08 01:45:53;;;;;;;51.42;24.15;;;;;;;1.27;78.98;99755.02;1754678;81;21152;-73
2020/12/08 01:48:20;;;;;;;52.95;26.37;;;;;;;1.24;79.03;99751.34;1754945;81;21172;-74
2020/12/08 01:50:46;;;;;;;56.15;25.72;;;;;;;1.22;79.06;99744.56;1754763;81;21605;-73
2020/12/08 01:53:13;;;;;;;48.58;24.37;;;;;;;1.20;79.11;99747.30;1707468;81;21612;-74
2020/12/08 01:55:39;;;;;;;47.95;23.65;;;;;;;1.18;79.13;99749.70;1754849;81;21557;-73
2020/12/08 01:58:20;;;;;;;52.30;25.43;;;;;;;1.14;79.20;99745.66;1754455;81;21155;-73
2020/12/08 02:00:44;;;;;;;44.90;22.40;;;;;;;1.13;79.24;99751.39;1754554;81;21194;-73
2020/12/08 02:03:10;;;;;;;51.55;24.43;;;;;;;1.13;79.30;99746.14;1754891;81;21148;-73
2020/12/08 02:05:36;;;;;;;48.30;22.30;;;;;;;1.13;79.35;99748.77;1754989;81;21580;-73
2020/12/08 02:08:03;;;;;;;49.33;25.12;;;;;;;1.12;79.38;99744.97;1754819;81;21199;-73
2020/12/08 02:10:29;;;;;;;54.10;26.52;;;;;;;1.12;79.46;99744.97;1754823;81;21151;-73
2020/12/08 02:12:55;;;;;;;50.75;25.68;;;;;;;1.13;79.50;99748.77;1754896;81;21207;-73
2020/12/08 02:15:23;;;;;;;50.48;26.10;;;;;;;1.12;79.53;99747.13;1754879;81;21581;-73
2020/12/08 02:17:49;;;;;;;54.25;25.60;;;;;;;1.12;79.58;99750.22;1754921;81;21641;-73
2020/12/08 02:20:15;;;;;;;51.33;24.75;;;;;;;1.10;79.62;99748.18;1754507;81;21546;-73
2020/12/08 02:22:42;;;;;;;49.93;23.90;;;;;;;1.08;79.68;99748.33;1754857;81;21159;-73
2020/12/08 02:25:09;;;;;;;48.83;23.55;;;;;;;1.08;79.72;99754.89;1754885;81;21136;-73
2020/12/08 02:27:35;;;;;;;42.40;23.05;;;;;;;1.10;79.78;99756.06;1754947;81;21580;-73
2020/12/08 02:30:03;;;;;;;51.68;24.85;;;;;;;1.11;79.81;99754.63;1754864;81;21546;-73
2020/12/08 02:32:30;;;;;;;50.05;25.00;;;;;;;1.12;79.86;99761.56;1754896;81;21160;-73
2020/12/08 02:34:56;;;;;;;53.80;27.55;;;;;;;1.15;79.93;99757.36;1754689;81;21601;-73
2020/12/08 02:37:23;;;;;;;52.60;26.60;;;;;;;1.16;79.98;99748.51;1754926;81;21116;-73
2020/12/08 02:39:49;;;;;;;54.08;26.60;;;;;;;1.15;80.03;99753.42;1754904;81;21120;-73
2020/12/08 02:42:15;;;;;;;48.20;24.07;;;;;;;1.16;80.07;99759.01;1754498;81;21207;-72
2020/12/08 02:44:42;;;;;;;47.08;25.57;;;;;;;1.16;80.13;99761.63;1755098;81;21452;-72
2020/12/08 02:47:08;;;;;;;46.10;24.77;;;;;;;1.15;80.17;99748.66;1754728;81;21160;-72
2020/12/08 02:49:35;;;;;;;48.75;25.60;;;;;;;1.13;80.20;99751.39;1754576;81;21184;-72
2020/12/08 02:52:01;;;;;;;50.95;24.80;;;;;;;1.13;80.26;99757.95;1754873;81;21116;-72
2020/12/08 02:54:27;;;;;;;61.95;27.95;;;;;;;1.14;80.32;99758.31;1754978;81;21148;-72
2020/12/08 02:56:54;;;;;;;54.50;29.23;;;;;;;1.14;80.37;99767.98;1754822;81;21246;-72
2020/12/08 02:59:20;;;;;;;54.18;26.80;;;;;;;1.14;80.40;99770.61;1754760;81;21148;-73
2020/12/08 03:01:46;;;;;;;57.27;27.73;;;;;;;1.13;80.46;99777.64;1754996;81;21129;-72
2020/12/08 03:04:12;;;;;;;51.23;27.10;;;;;;;1.11;80.51;99770.39;1754649;81;21112;-72
2020/12/08 03:06:42;;;;;;;51.42;23.18;;;;;;;1.11;80.54;99771.70;1754754;81;21188;-72
2020/12/08 03:09:08;;;;;;;38.43;20.97;;;;;;;1.11;80.55;99763.83;1755152;81;22149;-72
2020/12/08 03:11:35;;;;;;;49.85;26.20;;;;;;;1.11;80.61;99761.20;1754885;81;21317;-72
2020/12/08 03:14:01;;;;;;;50.17;26.33;;;;;;;1.12;80.65;99758.94;1754880;81;21127;-72
2020/12/08 03:16:27;;;;;;;59.80;29.95;;;;;;;1.12;80.71;99760.72;1747210;81;21171;-72
2020/12/08 03:18:53;;;;;;;57.10;28.75;;;;;;;1.14;80.74;99764.04;1730724;82;21608;-73
2020/12/08 03:21:20;;;;;;;58.00;30.97;;;;;;;1.14;80.79;99760.94;1730757;82;21236;-72
2020/12/08 03:23:46;;;;;;;57.25;30.37;;;;;;;1.15;80.83;99756.05;1730857;82;21168;-72
2020/12/08 03:26:21;;;;;;;57.85;27.45;;;;;;;1.19;80.85;99752.70;1730713;82;21105;-72
2020/12/08 03:28:48;;;;;;;49.25;25.02;;;;;;;1.22;80.87;99747.19;1730411;82;21172;-72
2020/12/08 03:31:15;;;;;;;59.93;27.73;;;;;;;1.25;80.90;99750.39;1730954;82;21148;-72
2020/12/08 03:33:42;;;;;;;50.35;26.60;;;;;;;1.29;80.93;99749.19;1730613;82;21199;-72
2020/12/08 03:36:13;;;;;;;54.65;27.50;;;;;;;1.32;80.97;99756.80;1730844;82;21160;-72
2020/12/08 03:38:42;;;;;;;51.13;28.30;;;;;;;1.35;81.01;99755.23;1730555;81;21176;-73
2020/12/08 03:41:08;;;;;;;57.43;30.60;;;;;;;1.37;81.03;99755.12;1730705;82;21585;-72
2020/12/08 03:43:34;;;;;;;57.08;31.15;;;;;;;1.37;81.07;99757.23;1730897;82;21546;-72
2020/12/08 03:46:01;;;;;;;57.50;29.42;;;;;;;1.39;81.09;99757.13;1730483;82;21164;-72
2020/12/08 03:48:27;;;;;;;49.90;26.95;;;;;;;1.37;81.11;99753.30;1730391;82;21183;-73
2020/12/08 03:50:53;;;;;;;51.50;28.73;;;;;;;1.36;81.14;99742.46;1730626;82;21143;-73
2020/12/08 03:53:20;;;;;;;57.78;28.73;;;;;;;1.35;81.17;99747.35;1730867;82;21144;-72
2020/12/08 03:55:46;;;;;;;50.25;28.12;;;;;;;1.33;81.20;99740.09;1730629;82;21251;-72
2020/12/08 03:58:12;;;;;;;51.33;28.70;;;;;;;1.29;81.28;99733.90;1730806;82;22073;-72
2020/12/08 04:00:38;;;;;;;54.67;29.57;;;;;;;1.24;81.30;99732.96;1730693;82;21169;-72
2020/12/08 04:03:05;;;;;;;61.75;31.80;;;;;;;1.18;81.35;99733.48;1730713;82;21116;-72
2020/12/08 04:05:31;;;;;;;60.67;30.62;;;;;;;1.14;81.38;99724.18;1730763;82;21188;-73
2020/12/08 04:07:57;;;;;;;56.37;29.98;;;;;;;1.10;81.41;99726.70;1730683;82;21617;-73
2020/12/08 04:10:23;;;;;;;55.03;29.27;;;;;;;1.06;81.43;99733.16;1730813;82;21187;-73
2020/12/08 04:12:50;;;;;;;57.75;30.12;;;;;;;1.04;81.47;99741.66;1730679;82;21151;-72
2020/12/08 04:15:16;;;;;;;54.27;28.57;;;;;;;0.99;81.48;99739.88;1730864;82;21165;-73
2020/12/08 04:17:42;;;;;;;59.67;31.35;;;;;;;0.99;81.53;99742.50;1730636;81;21120;-72
2020/12/08 04:20:09;;;;;;;60.00;30.90;;;;;;;0.97;81.55;99748.37;1730713;82;21128;-72
2020/12/08 04:22:35;;;;;;;60.40;30.37;;;;;;;0.96;81.60;99748.00;1730971;82;22146;-72
2020/12/08 04:25:01;;;;;;;65.47;33.40;;;;;;;0.94;81.61;99746.00;1730763;82;21526;-73
2020/12/08 04:27:27;;;;;;;77.30;36.42;;;;;;;0.90;81.65;99744.57;1730870;82;21573;-73
2020/12/08 04:29:54;;;;;;;68.15;33.80;;;;;;;0.88;81.67;99751.75;1730712;82;21140;-73
2020/12/08 04:32:20;;;;;;;71.07;34.33;;;;;;;0.85;81.69;99760.69;1730916;82;21135;-73
2020/12/08 04:34:46;;;;;;;59.08;30.05;;;;;;;0.84;81.72;99762.14;1730809;82;22037;-72
2020/12/08 04:37:12;;;;;;;59.42;28.05;;;;;;;0.83;81.72;99767.02;1731005;82;21117;-72
2020/12/08 04:39:39;;;;;;;58.15;32.58;;;;;;;0.83;81.78;99769.17;1730828;82;21555;-72
2020/12/08 04:42:05;;;;;;;59.98;31.37;;;;;;;0.81;81.79;99777.63;1730856;82;21538;-72
2020/12/08 04:44:31;;;;;;;66.90;36.68;;;;;;;0.80;81.82;99775.15;1731015;82;21164;-72
2020/12/08 04:46:58;;;;;;;62.33;32.78;;;;;;;0.77;81.85;99778.02;1731068;82;21231;-72
2020/12/08 04:49:25;;;;;;;66.77;34.70;;;;;;;0.74;81.87;99783.52;1730849;82;21153;-73
2020/12/08 04:51:51;;;;;;;56.23;29.48;;;;;;;0.70;81.88;99781.62;1731000;82;21133;-73
2020/12/08 04:54:18;;;;;;;57.00;30.85;;;;;;;0.69;81.88;99788.28;1730890;82;21658;-73
2020/12/08 04:56:44;;;;;;;60.92;29.42;;;;;;;0.66;81.91;99792.47;1730825;82;21156;-73
2020/12/08 04:59:21;;;;;;;56.48;30.05;;;;;;;0.66;81.94;99795.09;1712050;82;21201;-73
2020/12/08 05:01:48;;;;;;;59.20;30.05;;;;;;;0.65;81.96;99786.86;1730933;82;21163;-73
2020/12/08 05:04:24;;;;;;;61.23;31.37;;;;;;;0.62;81.97;99787.11;1730850;81;21137;-73
2020/12/08 05:07:04;;;;;;;61.65;31.93;;;;;;;0.60;81.99;99787.72;1730520;82;21148;-73
2020/12/08 05:09:30;;;;;;;58.78;29.85;;;;;;;0.57;82.03;99784.84;1730203;82;21573;-73
2020/12/08 05:11:59;;;;;;;59.63;29.50;;;;;;;0.55;82.03;99783.30;1730758;82;21263;-73
2020/12/08 05:14:25;;;;;;;55.70;29.72;;;;;;;0.54;82.06;99793.43;1730710;81;21183;-73
2020/12/08 05:17:04;;;;;;;58.35;31.17;;;;;;;0.49;82.05;99790.69;1735250;81;21518;-72
2020/12/08 05:19:30;;;;;;;62.60;31.42;;;;;;;0.48;82.09;99795.59;1754931;81;21137;-72
2020/12/08 05:21:56;;;;;;;59.90;30.23;;;;;;;0.47;82.09;99792.61;1754797;81;21195;-73
2020/12/08 05:24:28;;;;;;;55.67;31.62;;;;;;;0.44;82.11;99795.48;1754947;81;21186;-72
2020/12/08 05:26:56;;;;;;;72.75;33.25;;;;;;;0.44;82.12;99798.10;1754801;81;21131;-72
2020/12/08 05:29:22;;;;;;;69.15;36.80;;;;;;;0.41;82.14;99794.89;1754987;81;21165;-73
2020/12/08 05:31:50;;;;;;;243.57;104.95;;;;;;;0.40;82.18;99801.92;1754770;81;21140;-72
2020/12/08 05:34:20;;;;;;;114.28;62.00;;;;;;;0.40;82.20;99814.19;1731633;81;21196;-72
2020/12/08 05:36:49;;;;;;;791.85;375.15;;;;;;;0.39;82.22;99822.53;1754919;81;21163;-73
2020/12/08 05:39:21;;;;;;;135.18;61.08;;;;;;;0.39;82.24;99840.89;1754735;81;21156;-72
2020/12/08 05:41:49;;;;;;;194.22;93.30;;;;;;;0.39;82.25;99836.95;1755019;81;21192;-72
2020/12/08 05:44:24;;;;;;;144.00;71.92;;;;;;;0.38;82.26;99822.20;1754889;81;21160;-72
2020/12/08 05:46:53;;;;;;;156.95;83.27;;;;;;;0.37;82.28;99806.56;1754762;81;21179;-72
2020/12/08 05:49:20;;;;;;;67.97;35.75;;;;;;;0.33;82.30;99785.47;1731628;81;22089;-73
2020/12/08 05:51:48;;;;;;;75.00;39.95;;;;;;;0.28;82.32;99787.13;1754825;81;21654;-72
2020/12/08 05:54:20;;;;;;;65.00;34.10;;;;;;;0.25;82.33;99799.64;1754975;81;21139;-73
2020/12/08 05:56:52;;;;;;;56.65;30.77;;;;;;;0.21;82.35;99820.02;1754901;81;21159;-73
2020/12/08 05:59:28;;;;;;;56.18;30.68;;;;;;;0.21;82.36;99837.06;1754961;81;21148;-72
2020/12/08 06:01:55;;;;;;;66.97;34.23;;;;;;;0.21;82.37;99851.48;1738784;81;21197;-72
2020/12/08 06:04:22;;;;;;;86.95;41.88;;;;;;;0.22;82.37;99854.95;1736196;82;21146;-73
2020/12/08 06:06:55;;;;;;;71.60;37.03;;;;;;;0.22;82.37;99850.54;1707531;83;21164;-73
2020/12/08 06:09:29;;;;;;;70.78;43.33;;;;;;;0.23;82.39;99845.66;1736256;81;21138;-73
2020/12/08 06:11:56;;;;;;;67.00;38.92;;;;;;;0.22;82.39;99832.19;1723814;81;21164;-73
2020/12/08 06:14:32;;;;;;;67.47;35.85;;;;;;;0.19;82.41;99816.70;1782991;80;21228;-73
2020/12/08 06:17:06;;;;;;;65.10;30.43;;;;;;;0.16;82.43;99818.72;1749235;81;21164;-73
2020/12/08 06:19:33;;;;;;;63.48;32.23;;;;;;;0.11;82.45;99811.20;1764100;81;21483;-73
2020/12/08 06:22:00;;;;;;;57.83;29.92;;;;;;;0.09;82.47;99820.98;1763860;81;21147;-73
2020/12/08 06:24:27;;;;;;;74.72;36.73;;;;;;;0.07;82.49;99834.66;1764113;81;21210;-73
2020/12/08 06:26:53;;;;;;;64.53;31.77;;;;;;;0.07;82.52;99841.22;1763975;81;22114;-73
2020/12/08 06:29:20;;;;;;;61.05;30.88;;;;;;;0.10;82.52;99842.80;1764078;81;21585;-73
2020/12/08 06:31:48;;;;;;;59.90;32.10;;;;;;;0.13;82.55;99834.69;1763874;81;21167;-73
2020/12/08 06:34:29;;;;;;;65.15;34.55;;;;;;;0.12;82.55;99831.23;1764184;81;21568;-73
2020/12/08 06:36:55;;;;;;;77.55;35.95;;;;;;;0.14;82.56;99844.23;1764041;79;21205;-73
2020/12/08 06:39:21;;;;;;;71.25;35.00;;;;;;;0.13;82.61;99849.95;1763913;81;21589;-73
2020/12/08 06:41:48;;;;;;;65.47;33.30;;;;;;;0.12;82.62;99865.31;1764054;81;21191;-73
2020/12/08 06:44:19;;;;;;;62.83;30.37;;;;;;;0.15;82.61;99869.47;1763954;81;21123;-73
2020/12/08 06:46:59;;;;;;;60.28;28.38;;;;;;;0.18;82.60;99858.75;1763740;81;21175;-73
2020/12/08 06:49:26;;;;;;;58.58;30.48;;;;;;;0.20;82.63;99846.38;1763911;81;21183;-73
2020/12/08 06:51:55;;;;;;;68.02;33.95;;;;;;;0.20;82.65;99841.97;1763969;81;21217;-73
2020/12/08 06:54:21;;;;;;;57.58;29.50;;;;;;;0.19;82.67;99850.78;1764011;81;21163;-73
2020/12/08 06:56:48;;;;;;;62.55;32.08;;;;;;;0.19;82.70;99859.12;1763835;81;21628;-73
2020/12/08 06:59:22;;;;;;;60.33;30.12;;;;;;;0.18;82.68;99853.50;1764128;81;21163;-73
2020/12/08 07:01:53;;;;;;;56.08;28.60;;;;;;;0.18;82.70;99856.97;1763907;81;21163;-73
2020/12/08 07:04:19;;;;;;;59.00;28.87;;;;;;;0.18;82.73;99858.75;1763292;81;21409;-72
2020/12/08 07:06:46;;;;;;;54.45;29.02;;;;;;;0.16;82.73;99851.02;1763979;81;21136;-73
2020/12/08 07:09:12;;;;;;;60.80;30.72;;;;;;;0.16;82.75;99860.66;1764047;81;21115;-73
2020/12/08 07:11:38;;;;;;;52.35;28.17;;;;;;;0.15;82.77;99863.76;1763939;81;21147;-73
2020/12/08 07:14:05;;;;;;;57.48;31.17;;;;;;;0.14;82.77;99864.70;1736203;81;21568;-72
2020/12/08 07:16:33;;;;;;;65.40;32.98;;;;;;;0.13;82.78;99866.98;1763998;81;21252;-73
2020/12/08 07:19:02;;;;;;;56.10;28.98;;;;;;;0.13;82.79;99868.30;1767617;81;21188;-73
2020/12/08 07:21:28;;;;;;;58.73;28.65;;;;;;;0.14;82.80;99871.76;1768622;81;21207;-73
2020/12/08 07:23:55;;;;;;;148.15;66.33;;;;;;;0.16;82.83;99879.02;1768565;81;21123;-73
2020/12/08 07:26:25;;;;;;;134.50;60.35;;;;;;;0.19;82.82;99874.38;1768722;81;21136;-73
2020/12/08 07:28:52;;;;;;;112.40;55.58;;;;;;;0.23;82.84;99888.92;1767868;81;21584;-73
2020/12/08 07:31:25;;;;;;;76.05;37.93;;;;;;;0.27;82.83;99894.30;1768519;81;21135;-73
2020/12/08 07:33:52;;;;;;;74.12;40.73;;;;;;;0.30;82.85;99888.81;1768167;81;21604;-73
2020/12/08 07:36:31;;;;;;;64.77;33.48;;;;;;;0.32;82.85;99897.38;1768503;81;21131;-72
2020/12/08 07:39:00;;;;;;;62.40;30.92;;;;;;;0.34;82.84;99890.72;1768420;81;21179;-72
2020/12/08 07:41:28;;;;;;;62.48;30.80;;;;;;;0.33;82.84;99899.06;1768775;81;21186;-72
2020/12/08 07:43:55;;;;;;;75.70;35.85;;;;;;;0.33;82.84;99895.13;1768604;81;21144;-72
2020/12/08 07:46:29;;;;;;;62.55;32.23;;;;;;;0.34;82.83;99896.81;1768507;81;21124;-72
2020/12/08 07:49:08;;;;;;;61.90;29.82;;;;;;;0.34;82.82;99899.44;1768277;81;21179;-72
2020/12/08 07:51:36;;;;;;;64.22;31.87;;;;;;;0.35;82.82;99906.32;1768547;81;21214;-73
2020/12/08 07:54:04;;;;;;;69.58;33.33;;;;;;;0.38;82.84;99908.73;1768685;81;21256;-72
2020/12/08 07:56:32;;;;;;;70.85;35.10;;;;;;;0.39;82.83;99910.39;1768621;81;21191;-73
2020/12/08 07:58:58;;;;;;;86.25;38.85;;;;;;;0.41;82.83;99918.16;1768649;81;21143;-73
2020/12/08 08:01:25;;;;;;;70.42;33.73;;;;;;;0.42;82.82;99918.52;1768872;81;21195;-73
2020/12/08 08:03:51;;;;;;;74.42;34.23;;;;;;;0.44;82.82;99918.75;1768854;81;21127;-73
2020/12/08 08:06:20;;;;;;;68.25;34.78;;;;;;;0.47;82.83;99927.69;1768651;81;21207;-73
2020/12/08 08:08:47;;;;;;;337.10;113.40;;;;;;;0.50;82.83;99924.83;1768784;81;21243;-73
2020/12/08 08:11:14;;;;;;;324.25;122.20;;;;;;;0.52;82.82;99912.92;1768810;81;21123;-73
2020/12/08 08:13:41;;;;;;;498.70;204.10;;;;;;;0.50;82.82;99915.65;1768717;81;21123;-73
2020/12/08 08:16:14;;;;;;;277.87;104.63;;;;;;;0.52;82.82;99930.44;1768613;81;21135;-73
2020/12/08 08:18:40;;;;;;;151.22;66.47;;;;;;;0.52;82.83;99926.03;1768595;81;21139;-73
2020/12/08 08:21:07;;;;;;;201.00;80.67;;;;;;;0.56;82.82;99929.26;1768780;81;21167;-73
2020/12/08 08:23:34;;;;;;;124.55;50.73;;;;;;;0.60;82.82;99925.45;1768789;81;21123;-72
2020/12/08 08:26:08;;;;;;;113.52;43.92;;;;;;;0.64;82.81;99930.79;1768853;81;21176;-72
2020/12/08 08:28:34;;;;;;;121.47;52.48;;;;;;;0.67;82.81;99926.64;1768651;81;21179;-72
2020/12/08 08:31:01;;;;;;;92.25;42.15;;;;;;;0.72;82.81;99929.73;1768811;81;22182;-73
2020/12/08 08:33:27;;;;;;;65.35;33.85;;;;;;;0.76;82.78;99916.26;1768717;81;21189;-73
2020/12/08 08:35:54;;;;;;;83.33;41.10;;;;;;;0.79;82.77;99912.55;1768540;81;21191;-73
2020/12/08 08:38:21;;;;;;;82.57;39.45;;;;;;;0.80;82.76;99920.80;1768734;81;21604;-73
2020/12/08 08:40:48;;;;;;;64.45;34.38;;;;;;;0.82;82.75;99934.62;1768652;81;21170;-73
2020/12/08 08:43:14;;;;;;;74.65;34.83;;;;;;;0.82;82.74;99927.59;1768881;81;22141;-73
2020/12/08 08:45:41;;;;;;;104.90;48.98;;;;;;;0.81;82.74;99929.84;1768566;81;21132;-73
2020/12/08 08:48:07;;;;;;;61.45;31.37;;;;;;;0.85;82.70;99938.31;1768774;81;21139;-73
2020/12/08 08:50:33;;;;;;;56.45;29.67;;;;;;;0.88;82.69;99932.84;1768704;81;21150;-73
2020/12/08 08:53:01;;;;;;;60.10;30.15;;;;;;;0.91;82.68;99939.17;1768521;81;21151;-73
2020/12/08 08:55:27;;;;;;;60.12;28.17;;;;;;;0.93;82.64;99933.30;1768466;81;22268;-73
2020/12/08 08:57:54;;;;;;;59.63;30.65;;;;;;;0.98;82.64;99931.17;1768637;81;21600;-73
2020/12/08 09:00:20;;;;;;;77.58;34.98;;;;;;;1.00;82.62;99934.50;1768757;81;21605;-73
2020/12/08 09:02:46;;;;;;;54.27;28.15;;;;;;;1.05;82.60;99939.39;1768502;81;21140;-73
2020/12/08 09:05:16;;;;;;;52.73;24.10;;;;;;;1.12;82.57;99938.80;1768734;81;21187;-73
2020/12/08 09:07:42;;;;;;;55.63;28.23;;;;;;;1.15;82.52;99944.27;1768898;81;21212;-73
2020/12/08 09:10:08;;;;;;;52.15;25.77;;;;;;;1.16;82.48;99938.88;1768663;81;21140;-73
2020/12/08 09:12:35;;;;;;;58.38;29.80;;;;;;;1.18;82.46;99927.80;1768640;81;21478;-73
2020/12/08 09:15:04;;;;;;;57.03;28.30;;;;;;;1.16;82.44;99932.81;1768605;81;21183;-73
2020/12/08 09:17:29;;;;;;;49.77;26.60;;;;;;;1.12;82.40;99930.08;1768933;81;21151;-73
2020/12/08 09:19:55;;;;;;;56.02;29.55;;;;;;;1.10;82.40;99938.06;1746774;81;22127;-73
2020/12/08 09:22:22;;;;;;;53.80;26.97;;;;;;;1.11;82.34;99938.42;1743574;81;21178;-73
2020/12/08 09:24:49;;;;;;;56.30;27.73;;;;;;;1.12;82.32;99936.64;1724190;81;21140;-73
2020/12/08 09:27:16;;;;;;;50.60;25.85;;;;;;;1.09;82.29;99925.87;1716086;82;21191;-73
2020/12/08 09:29:42;;;;;;;54.25;25.85;;;;;;;1.07;82.24;99934.84;1732624;82;21159;-72
2020/12/08 09:32:08;;;;;;;55.10;26.20;;;;;;;1.07;82.25;99933.05;1756015;81;21552;-70
2020/12/08 09:34:34;;;;;;;133.72;48.00;;;;;;;1.15;82.25;99932.45;1755316;81;21139;-69
2020/12/08 09:37:01;;;;;;;293.63;113.92;;;;;;;1.22;82.20;99937.10;1723624;81;21152;-71
2020/12/08 09:39:27;;;;;;;184.13;74.07;;;;;;;1.29;82.18;99934.34;1747618;81;21154;-73
2020/12/08 09:41:54;;;;;;;317.37;129.40;;;;;;;1.36;82.15;99927.64;1754145;80;21136;-73
2020/12/08 09:44:21;;;;;;;202.00;79.40;;;;;;;1.41;82.12;99924.15;1724494;83;22088;-73
2020/12/08 09:46:47;;;;;;;207.72;77.85;;;;;;;1.45;82.08;99905.88;1755374;80;21162;-73
2020/12/08 09:49:13;;;;;;;230.77;94.95;;;;;;;1.43;82.02;99905.65;1724631;83;21608;-73
2020/12/08 09:51:40;;;;;;;222.73;84.75;;;;;;;1.39;82.00;99907.69;1697085;84;21627;-73
2020/12/08 09:54:07;;;;;;;135.20;52.38;;;;;;;1.38;81.98;99908.64;1726214;83;21554;-73
2020/12/08 09:56:33;;;;;;;167.47;62.00;;;;;;;1.38;81.94;99907.80;1726187;83;21201;-72
2020/12/08 09:58:59;;;;;;;88.82;40.23;;;;;;;1.41;81.92;99911.02;1695368;84;21202;-73
2020/12/08 10:01:33;;;;;;;69.55;34.03;;;;;;;1.50;81.92;99915.55;1740591;81;21205;-72
2020/12/08 10:04:00;;;;;;;125.07;53.92;;;;;;;1.60;81.88;99920.04;1718160;82;21143;-72
2020/12/08 10:06:26;;;;;;;92.97;43.85;;;;;;;1.62;81.84;99927.34;1721039;82;21195;-72
2020/12/08 10:08:56;;;;;;;121.67;49.70;;;;;;;1.63;81.79;99929.81;1716920;83;22040;-72
2020/12/08 10:11:25;;;;;;;56.00;29.02;;;;;;;1.64;81.75;99928.03;1740707;81;21139;-72
2020/12/08 10:13:52;;;;;;;56.18;28.92;;;;;;;1.70;81.70;99930.15;1756389;81;21188;-72
2020/12/08 10:16:20;;;;;;;59.55;31.12;;;;;;;1.76;81.66;99940.99;1723497;83;21192;-72
2020/12/08 10:18:48;;;;;;;59.00;30.68;;;;;;;1.83;81.63;99930.84;1722484;83;21207;-72
2020/12/08 10:21:20;;;;;;;59.70;31.62;;;;;;;1.91;81.60;99929.70;1751873;81;21199;-72
2020/12/08 10:23:46;;;;;;;49.42;26.95;;;;;;;1.97;81.55;99929.22;1765878;80;21148;-72
2020/12/08 10:26:12;;;;;;;57.58;31.52;;;;;;;2.07;81.52;99927.49;1741248;80;21144;-72
2020/12/08 10:28:38;;;;;;;53.13;28.50;;;;;;;2.14;81.46;99929.97;1746627;80;21159;-73
2020/12/08 10:31:05;;;;;;;53.17;27.25;;;;;;;2.18;81.42;99924.77;1742266;80;21175;-72
2020/12/08 10:33:31;;;;;;;118.17;43.33;;;;;;;2.19;81.35;99925.14;1734758;80;21895;-72
2020/12/08 10:35:57;;;;;;;345.57;103.87;;;;;;;2.20;81.30;99923.34;1745114;80;21755;-72
2020/12/08 10:38:24;;;;;;;487.27;154.40;;;;;;;2.16;81.24;99918.83;1734583;81;21160;-72
2020/12/08 10:40:51;;;;;;;375.95;120.13;;;;;;;2.18;81.20;99926.09;1730958;81;21162;-72
2020/12/08 10:43:19;;;;;;;426.50;126.18;;;;;;;2.21;81.14;99920.60;1712025;82;21154;-72
2020/12/08 10:45:47;;;;;;;339.25;101.35;;;;;;;2.23;81.10;99917.34;1716723;81;22124;-73
2020/12/08 10:48:14;;;;;;;175.87;58.17;;;;;;;2.23;81.05;99912.09;1732310;82;21191;-73
2020/12/08 10:50:41;;;;;;;474.38;159.85;;;;;;;2.27;81.02;99910.03;1728780;81;21169;-73
2020/12/08 10:53:07;;;;;;;252.43;89.32;;;;;;;2.34;80.97;99904.13;1731763;81;21203;-72
2020/12/08 10:55:34;;;;;;;180.07;76.02;;;;;;;2.37;80.91;99902.55;1739714;80;21164;-72
2020/12/08 10:58:01;;;;;;;196.95;81.85;;;;;;;2.38;80.84;99892.39;1720371;81;22016;-74
2020/12/08 11:00:27;;;;;;;198.50;88.60;;;;;;;2.40;80.78;99899.66;1745928;80;21186;-73
2020/12/08 11:02:53;;;;;;;187.95;85.38;;;;;;;2.47;80.77;99903.42;1738361;81;21161;-73
2020/12/08 11:05:20;;;;;;;141.22;66.20;;;;;;;2.53;80.73;99909.48;1705941;83;21144;-73
2020/12/08 11:07:46;;;;;;;154.72;74.32;;;;;;;2.62;80.69;99901.77;1748498;81;21187;-73
2020/12/08 11:10:12;;;;;;;86.78;46.37;;;;;;;2.69;80.66;99906.86;1734216;82;21591;-73
2020/12/08 11:12:39;;;;;;;65.03;34.58;;;;;;;2.71;80.60;99908.89;1737740;81;21147;-73
2020/12/08 11:15:05;;;;;;;65.12;32.28;;;;;;;2.74;80.57;99899.41;1735841;82;21171;-73
2020/12/08 11:17:35;;;;;;;54.23;28.62;;;;;;;2.78;80.53;99900.81;1735880;82;21168;-73
2020/12/08 11:20:00;;;;;;;52.78;27.25;;;;;;;2.81;80.48;99907.13;1724689;82;21180;-73
2020/12/08 11:22:26;;;;;;;56.42;30.15;;;;;;;2.86;80.42;99904.91;1720896;83;21192;-73
2020/12/08 11:24:52;;;;;;;60.65;31.15;;;;;;;2.89;80.37;99908.12;1722160;82;21209;-73